createdAt,value
2018-10-09T00:02:02.660Z,6.50
2018-10-09T00:07:05.841Z,6.50
2018-10-09T00:12:08.965Z,6.40
2018-10-09T00:17:12.036Z,6.40
2018-10-09T00:22:15.099Z,6.40
2018-10-09T00:27:18.184Z,6.40
2018-10-09T00:32:21.270Z,6.40
2018-10-09T00:37:24.363Z,6.30
2018-10-09T00:42:27.433Z,6.30
2018-10-09T00:47:30.492Z,6.30
2018-10-09T00:52:33.507Z,6.30
2018-10-09T00:57:36.570Z,6.30
2018-10-09T01:02:39.616Z,6.30
2018-10-09T01:07:42.704Z,6.20
2018-10-09T01:12:45.735Z,6.20
2018-10-09T01:17:48.867Z,6.20
2018-10-09T01:22:51.927Z,6.10
2018-10-09T01:27:55.021Z,6.00
2018-10-09T01:32:58.048Z,5.90
2018-10-09T01:38:01.224Z,5.80
2018-10-09T01:43:04.298Z,5.80
2018-10-09T01:48:07.364Z,5.80
2018-10-09T01:53:10.452Z,5.70
2018-10-09T01:58:13.569Z,5.70
2018-10-09T02:03:16.629Z,5.60
2018-10-09T02:08:19.691Z,5.60
2018-10-09T02:13:22.749Z,5.50
2018-10-09T02:18:25.896Z,5.50
2018-10-09T02:23:29.066Z,5.50
2018-10-09T02:28:32.186Z,5.50
2018-10-09T02:33:35.379Z,5.50
2018-10-09T02:38:38.365Z,5.50
2018-10-09T02:43:41.482Z,5.50
2018-10-09T02:48:44.530Z,5.40
2018-10-09T02:53:47.707Z,5.40
2018-10-09T02:58:50.750Z,5.40
2018-10-09T03:03:53.802Z,5.30
2018-10-09T03:08:56.873Z,5.30
2018-10-09T03:13:59.888Z,5.30
2018-10-09T03:19:03.055Z,5.40
2018-10-09T03:24:06.121Z,5.30
2018-10-09T03:29:09.194Z,5.30
2018-10-09T03:34:12.295Z,5.30
2018-10-09T03:39:15.351Z,5.30
2018-10-09T03:44:18.445Z,5.20
2018-10-09T03:49:21.509Z,5.20
2018-10-09T03:54:24.559Z,5.20
2018-10-09T03:59:27.627Z,5.20
2018-10-09T04:04:30.669Z,5.20
2018-10-09T04:09:33.741Z,5.20
2018-10-09T04:14:36.847Z,5.20
2018-10-09T04:19:39.937Z,5.20
2018-10-09T04:24:42.968Z,5.30
2018-10-09T04:29:46.119Z,5.30
2018-10-09T04:34:49.184Z,5.30
2018-10-09T04:39:52.264Z,5.40
2018-10-09T04:44:55.326Z,5.40
2018-10-09T04:49:58.381Z,5.40
2018-10-09T04:55:01.640Z,5.40
2018-10-09T05:00:04.742Z,5.50
2018-10-09T05:05:07.808Z,5.60
2018-10-09T05:10:10.916Z,5.60
2018-10-09T05:15:14.091Z,5.70
2018-10-09T05:20:17.199Z,5.70
2018-10-09T05:25:20.325Z,5.70
2018-10-09T05:30:23.404Z,5.60
2018-10-09T05:35:26.521Z,5.60
2018-10-09T05:40:29.603Z,5.60
2018-10-09T05:45:36.919Z,5.60
2018-10-09T05:50:40.032Z,5.60
2018-10-09T05:55:43.096Z,5.60
2018-10-09T06:00:46.185Z,5.60
2018-10-09T06:05:49.320Z,5.80
2018-10-09T06:10:52.447Z,5.80
2018-10-09T06:15:55.552Z,6.00
2018-10-09T06:20:58.546Z,6.10
2018-10-09T06:26:01.673Z,6.40
2018-10-09T06:31:04.717Z,6.50
2018-10-09T06:36:07.885Z,6.60
2018-10-09T06:41:11.028Z,6.70
2018-10-09T06:46:17.330Z,6.90
2018-10-09T06:51:20.376Z,6.90
2018-10-09T06:56:27.206Z,7.00
2018-10-09T07:01:30.249Z,7.00
2018-10-09T07:06:33.313Z,7.20
2018-10-09T07:11:36.453Z,7.40
2018-10-09T07:16:39.458Z,7.60
2018-10-09T07:21:42.546Z,7.60
2018-10-09T07:26:45.666Z,7.80
2018-10-09T07:31:48.736Z,7.90
2018-10-09T07:36:51.783Z,8.10
2018-10-09T07:41:54.851Z,8.20
2018-10-09T07:46:57.900Z,8.70
2018-10-09T07:52:00.996Z,9.00
2018-10-09T07:57:04.056Z,9.20
2018-10-09T08:02:07.112Z,9.60
2018-10-09T08:07:10.203Z,10.10
2018-10-09T08:12:13.292Z,10.80
2018-10-09T08:17:16.355Z,11.20
2018-10-09T08:22:19.466Z,11.50
2018-10-09T08:27:22.522Z,11.60
2018-10-09T08:32:25.708Z,11.40
2018-10-09T08:37:28.749Z,11.40
2018-10-09T08:42:31.759Z,11.40
2018-10-09T08:47:34.870Z,11.70
2018-10-09T08:52:38.028Z,11.80
2018-10-09T08:57:41.090Z,12.10
2018-10-09T09:02:44.145Z,12.10
2018-10-09T09:07:47.239Z,12.40
2018-10-09T09:12:50.295Z,12.90
2018-10-09T09:17:53.343Z,12.90
2018-10-09T09:22:56.417Z,13.10
2018-10-09T09:27:59.514Z,13.20
2018-10-09T09:33:05.753Z,13.30
2018-10-09T09:38:08.860Z,13.30
2018-10-09T09:43:12.055Z,13.10
2018-10-09T09:48:15.101Z,13.00
2018-10-09T09:53:18.142Z,13.20
2018-10-09T09:58:21.325Z,13.60
2018-10-09T10:03:24.364Z,13.90
2018-10-09T10:08:28.075Z,14.30
2018-10-09T10:13:31.125Z,14.60
2018-10-09T10:18:34.152Z,14.70
2018-10-09T10:23:37.224Z,14.90
2018-10-09T10:28:40.297Z,15.00
2018-10-09T10:33:43.388Z,15.30
2018-10-09T10:38:46.511Z,15.60
2018-10-09T10:43:49.560Z,15.70
2018-10-09T10:49:00.579Z,15.80
2018-10-09T10:54:03.648Z,15.80
2018-10-09T10:59:06.721Z,16.00
2018-10-09T11:04:10.723Z,16.10
2018-10-09T11:09:13.740Z,16.40
2018-10-09T11:14:16.830Z,16.70
2018-10-09T11:19:19.901Z,16.90
2018-10-09T11:24:22.948Z,17.20
2018-10-09T11:29:26.049Z,17.40
2018-10-09T11:34:29.153Z,17.80
2018-10-09T11:39:32.216Z,17.70
2018-10-09T11:44:35.402Z,17.60
2018-10-09T11:49:38.548Z,17.60
2018-10-09T11:54:41.783Z,17.70
2018-10-09T11:59:44.891Z,17.80
2018-10-09T12:04:48.115Z,18.00
2018-10-09T12:09:51.281Z,18.20
2018-10-09T12:14:54.555Z,18.20
2018-10-09T12:19:57.642Z,18.30
2018-10-09T12:25:00.757Z,18.30
2018-10-09T12:30:03.925Z,18.30
2018-10-09T12:35:07.161Z,18.30
2018-10-09T12:40:10.262Z,18.30
2018-10-09T12:45:13.283Z,18.50
2018-10-09T12:50:16.335Z,18.60
2018-10-09T12:55:19.391Z,18.60
2018-10-09T13:00:22.484Z,18.70
2018-10-09T13:05:25.496Z,18.70
2018-10-09T13:10:28.596Z,18.50
2018-10-09T13:15:31.696Z,18.30
2018-10-09T13:20:34.740Z,18.20
2018-10-09T13:25:37.820Z,18.20
2018-10-09T13:30:40.868Z,18.30
2018-10-09T13:35:43.928Z,18.30
2018-10-09T13:40:47.036Z,18.10
2018-10-09T13:45:50.173Z,18.20
2018-10-09T13:50:53.332Z,18.10
2018-10-09T13:55:56.353Z,18.00
2018-10-09T14:00:59.432Z,18.00
2018-10-09T14:06:02.527Z,18.00
2018-10-09T14:11:06.164Z,18.00
2018-10-09T14:16:09.246Z,18.10
2018-10-09T14:21:12.301Z,18.10
2018-10-09T14:26:15.404Z,18.00
2018-10-09T14:31:18.512Z,18.00
2018-10-09T14:36:21.613Z,18.00
2018-10-09T14:41:24.675Z,17.90
2018-10-09T14:46:27.784Z,17.80
2018-10-09T14:51:30.833Z,17.70
2018-10-09T14:56:33.847Z,17.50
2018-10-09T15:01:40.379Z,17.30
2018-10-09T15:06:43.455Z,17.10
2018-10-09T15:11:46.541Z,17.00
2018-10-09T15:16:49.642Z,16.90
2018-10-09T15:21:52.681Z,16.90
2018-10-09T15:26:55.764Z,16.90
2018-10-09T15:31:58.840Z,16.80
2018-10-09T15:37:02.008Z,16.70
2018-10-09T15:42:05.044Z,16.70
2018-10-09T15:47:08.217Z,16.60
2018-10-09T15:52:11.580Z,16.50
2018-10-09T15:57:14.604Z,16.40
2018-10-09T16:02:18.232Z,16.20
2018-10-09T16:07:21.309Z,16.10
2018-10-09T16:12:24.644Z,15.90
2018-10-09T16:17:27.727Z,15.70
2018-10-09T16:22:30.831Z,15.50
2018-10-09T16:27:34.059Z,15.40
2018-10-09T16:32:37.202Z,15.20
2018-10-09T16:37:40.183Z,15.00
2018-10-09T16:42:43.241Z,14.80
2018-10-09T16:47:46.287Z,14.60
2018-10-09T16:52:49.345Z,14.40
2018-10-09T16:57:52.391Z,14.20
2018-10-09T17:02:55.461Z,14.00
2018-10-09T17:07:58.572Z,13.80
2018-10-09T17:13:01.615Z,13.60
2018-10-09T17:18:04.675Z,13.50
2018-10-09T17:23:07.751Z,13.30
2018-10-09T17:28:10.810Z,13.20
2018-10-09T17:33:13.960Z,13.10
2018-10-09T17:38:16.929Z,13.00
2018-10-09T17:43:20.061Z,12.80
2018-10-09T17:48:23.113Z,12.70
2018-10-09T17:53:26.259Z,12.60
2018-10-09T17:58:29.371Z,12.50
2018-10-09T18:03:32.504Z,12.40
2018-10-09T18:08:35.541Z,12.30
2018-10-09T18:13:38.591Z,12.10
2018-10-09T18:18:41.615Z,12.10
2018-10-09T18:23:44.706Z,12.00
2018-10-09T18:28:47.785Z,12.00
2018-10-09T18:33:50.819Z,11.90
2018-10-09T18:38:53.867Z,11.90
2018-10-09T18:43:56.931Z,11.80
2018-10-09T18:48:59.955Z,11.80
2018-10-09T18:54:03.429Z,11.70
2018-10-09T18:59:06.810Z,11.80
2018-10-09T19:04:10.085Z,11.80
2018-10-09T19:09:13.146Z,11.70
2018-10-09T19:14:16.290Z,11.60
2018-10-09T19:19:19.407Z,11.50
2018-10-09T19:24:22.429Z,11.40
2018-10-09T19:29:25.574Z,11.40
2018-10-09T19:34:28.631Z,11.30
2018-10-09T19:39:31.792Z,11.20
2018-10-09T19:44:34.889Z,11.20
2018-10-09T19:49:37.955Z,11.10
2018-10-09T19:54:41.059Z,11.10
2018-10-09T19:59:44.145Z,11.00
2018-10-09T20:04:47.324Z,11.00
2018-10-09T20:09:50.390Z,10.90
2018-10-09T20:14:53.451Z,10.90
2018-10-09T20:19:56.547Z,10.90
2018-10-09T20:24:59.702Z,10.80
2018-10-09T20:30:03.027Z,10.90
2018-10-09T20:35:06.272Z,10.80
2018-10-09T20:40:09.378Z,10.80
2018-10-09T20:45:12.515Z,10.80
2018-10-09T20:50:15.594Z,10.80
2018-10-09T20:55:18.650Z,10.80
2018-10-09T21:00:21.770Z,10.70
2018-10-09T21:05:24.844Z,10.70
2018-10-09T21:10:28.583Z,10.70
2018-10-09T21:15:31.637Z,10.60
2018-10-09T21:20:34.729Z,10.60
2018-10-09T21:25:38.250Z,10.60
2018-10-09T21:30:41.421Z,10.60
2018-10-09T21:35:44.528Z,10.60
2018-10-09T21:40:47.606Z,10.50
2018-10-09T21:45:50.644Z,10.50
2018-10-09T21:50:53.706Z,10.40
2018-10-09T21:55:57.223Z,10.40
2018-10-09T22:01:05.534Z,10.40
2018-10-09T22:06:08.973Z,10.40
2018-10-09T22:11:12.036Z,10.30
2018-10-09T22:16:15.113Z,10.40
2018-10-09T22:21:18.155Z,10.30
2018-10-09T22:26:21.290Z,10.30
2018-10-09T22:31:24.369Z,10.30
2018-10-09T22:36:27.436Z,10.30
2018-10-09T22:41:30.543Z,10.30
2018-10-09T22:46:33.566Z,10.30
2018-10-09T22:51:36.645Z,10.30
2018-10-09T22:56:39.757Z,10.30
2018-10-09T23:01:42.826Z,10.30
2018-10-09T23:06:45.906Z,10.30
2018-10-09T23:11:49.000Z,10.30
2018-10-09T23:16:52.135Z,10.20
2018-10-09T23:21:55.195Z,10.30
2018-10-09T23:26:58.251Z,10.30
2018-10-09T23:32:01.299Z,10.20
2018-10-09T23:37:04.463Z,10.20
2018-10-09T23:42:07.575Z,10.10
2018-10-09T23:47:10.618Z,10.10
2018-10-09T23:52:13.680Z,10.10
2018-10-09T23:57:16.857Z,10.00
